Time;durP1;ratioP1;P1;durP2;ratioP2;P2;SDS_P1;SDS_P2;PMS_P1;PMS_P2;Temp;Humidity;BMP_temperature;BMP_pressure;BME280_temperature;BME280_humidity;BME280_pressure;Samples;Min_cycle;Max_cycle;Signal;HPM_P1;HPM_P2
2023/03/15 00:00:11;;;;;;;9.25;0.63;;;2.10;1.00;;;;;;4974417;28;20046;-63
2023/03/15 00:02:38;;;;;;;7.82;0.68;;;2.00;1.00;;;;;;4978026;28;20337;-63
2023/03/15 00:05:04;;;;;;;11.80;0.60;;;2.00;1.00;;;;;;4975771;28;20054;-62
2023/03/15 00:07:30;;;;;;;10.88;0.68;;;2.10;1.00;;;;;;4976560;28;20026;-63
2023/03/15 00:09:56;;;;;;;9.98;0.57;;;2.10;1.00;;;;;;4976108;28;21318;-64
2023/03/15 00:12:22;;;;;;;10.82;0.60;;;2.10;1.00;;;;;;4958163;28;20049;-63
2023/03/15 00:14:49;;;;;;;14.88;0.88;;;2.10;1.00;;;;;;5012572;28;20065;-62
2023/03/15 00:17:14;;;;;;;11.07;1.27;;;2.10;1.00;;;;;;4995537;28;20653;-63
2023/03/15 00:19:40;;;;;;;11.10;0.65;;;2.10;1.00;;;;;;4979866;28;20041;-62
2023/03/15 00:22:06;;;;;;;8.25;0.50;;;1.80;1.00;;;;;;4979436;28;20280;-64
2023/03/15 00:24:32;;;;;;;9.43;0.80;;;1.70;1.00;;;;;;4957719;28;20323;-62
2023/03/15 00:26:57;;;;;;;12.77;0.90;;;1.90;1.00;;;;;;5010179;28;20062;-61
2023/03/15 00:29:23;;;;;;;10.48;0.63;;;1.80;1.00;;;;;;4981245;28;20116;-63
2023/03/15 00:31:50;;;;;;;12.02;0.90;;;1.80;1.00;;;;;;4995215;28;20246;-61
2023/03/15 00:34:17;;;;;;;11.90;0.80;;;1.70;1.00;;;;;;4961837;28;20615;-63
2023/03/15 00:36:44;;;;;;;8.13;0.50;;;1.60;1.00;;;;;;4977640;28;20080;-63
2023/03/15 00:39:10;;;;;;;9.50;0.55;;;1.20;1.00;;;;;;4983258;28;20054;-61
2023/03/15 00:41:36;;;;;;;9.52;0.80;;;1.50;1.00;;;;;;4993234;28;20258;-62
2023/03/15 00:44:03;;;;;;;8.77;0.60;;;1.50;1.00;;;;;;4981122;28;20045;-61
2023/03/15 00:46:29;;;;;;;8.27;0.60;;;1.30;1.00;;;;;;4997194;28;20074;-62
2023/03/15 00:48:55;;;;;;;8.15;0.55;;;1.20;1.00;;;;;;4997125;28;20038;-62
2023/03/15 00:51:23;;;;;;;8.77;0.50;;;1.60;49.20;;;;;;4994473;28;20867;-63
2023/03/15 00:53:51;;;;;;;6.32;0.35;;;1.80;18.10;;;;;;4980833;28;20160;-61
2023/03/15 00:56:19;;;;;;;7.30;0.40;;;1.80;1.00;;;;;;4991658;28;20042;-62
2023/03/15 00:58:45;;;;;;;4.65;0.35;;;1.80;1.00;;;;;;4981492;28;20038;-62
2023/03/15 01:01:14;;;;;;;10.65;0.40;;;1.60;1.00;;;;;;5009734;28;20054;-62
2023/03/15 01:03:41;;;;;;;5.40;0.63;;;1.50;1.00;;;;;;4979384;28;20045;-63
2023/03/15 01:06:17;;;;;;;6.07;0.40;;;1.70;1.00;;;;;;4977279;28;20092;-64
2023/03/15 01:08:43;;;;;;;9.93;0.40;;;1.40;1.00;;;;;;4992244;28;20869;-63
2023/03/15 01:11:11;;;;;;;7.55;0.68;;;1.50;1.00;;;;;;5010088;28;20451;-62
2023/03/15 01:13:38;;;;;;;6.55;0.30;;;1.60;1.00;;;;;;5009748;28;20096;-63
2023/03/15 01:16:04;;;;;;;6.60;0.50;;;1.60;1.00;;;;;;4977639;28;20148;-62
2023/03/15 01:18:30;;;;;;;12.38;0.40;;;1.50;1.00;;;;;;4976997;28;20049;-62
2023/03/15 01:20:56;;;;;;;8.93;0.50;;;1.40;1.00;;;;;;4979010;28;20384;-63
2023/03/15 01:23:22;;;;;;;11.93;0.60;;;1.40;1.00;;;;;;4974244;28;20073;-63
2023/03/15 01:25:48;;;;;;;10.68;0.45;;;1.50;1.00;;;;;;4992977;28;20122;-62
2023/03/15 01:28:14;;;;;;;15.35;0.70;;;1.40;1.00;;;;;;4978460;28;20130;-62
2023/03/15 01:30:40;;;;;;;7.57;0.40;;;1.30;1.00;;;;;;4993005;28;20045;-63
2023/03/15 01:33:06;;;;;;;7.63;0.45;;;1.40;1.00;;;;;;4976790;28;20179;-62
2023/03/15 01:35:31;;;;;;;8.48;0.55;;;1.40;12.00;;;;;;4977150;28;20441;-63
2023/03/15 01:37:57;;;;;;;13.88;1.05;;;1.40;10.20;;;;;;4975743;28;20265;-63
2023/03/15 01:40:23;;;;;;;14.38;0.47;;;1.70;21.50;;;;;;4978927;28;20033;-63
2023/03/15 01:43:02;;;;;;;15.63;0.70;;;1.50;31.30;;;;;;4977075;28;20156;-63
2023/03/15 01:45:50;;;;;;;12.77;0.70;;;1.80;26.40;;;;;;5009207;28;20038;-63
2023/03/15 01:48:16;;;;;;;8.00;0.40;;;1.90;1.00;;;;;;5010059;28;20052;-64
2023/03/15 01:50:42;;;;;;;13.35;1.00;;;1.80;1.00;;;;;;4979406;28;20046;-63
2023/03/15 01:53:09;;;;;;;8.98;0.73;;;1.90;1.00;;;;;;4992772;28;20300;-62
2023/03/15 01:55:35;;;;;;;9.88;0.40;;;1.70;1.00;;;;;;4977331;28;20050;-62
2023/03/15 01:58:01;;;;;;;9.80;0.57;;;1.80;1.00;;;;;;4992822;28;20399;-62
2023/03/15 02:00:26;;;;;;;7.72;0.30;;;2.00;1.00;;;;;;4977630;28;20043;-63
2023/03/15 02:03:03;;;;;;;7.78;0.70;;;2.00;1.00;;;;;;4978418;28;20065;-63
2023/03/15 02:05:34;;;;;;;7.65;0.40;;;2.30;1.00;;;;;;4977210;28;20045;-61
2023/03/15 02:08:03;;;;;;;10.23;0.50;;;2.10;1.00;;;;;;4977671;28;20095;-62
2023/03/15 02:10:37;;;;;;;4.75;0.40;;;2.30;1.00;;;;;;4993699;28;20524;-62
2023/03/15 02:13:04;;;;;;;5.28;0.30;;;2.30;1.00;;;;;;4979108;28;20038;-62
2023/03/15 02:15:30;;;;;;;9.82;0.80;;;2.30;1.00;;;;;;5008241;28;20393;-62
2023/03/15 02:17:55;;;;;;;8.75;0.40;;;2.20;1.00;;;;;;5009155;28;20088;-62
2023/03/15 02:20:40;;;;;;;11.85;0.68;;;2.00;1.00;;;;;;4976050;28;20121;-64
2023/03/15 02:23:10;;;;;;;10.40;0.70;;;1.80;1.00;;;;;;4979039;28;20200;-63
2023/03/15 02:25:47;;;;;;;9.68;0.40;;;2.00;1.00;;;;;;5008574;28;20126;-63
2023/03/15 02:28:15;;;;;;;8.23;0.40;;;1.80;1.00;;;;;;4978849;28;20152;-62
2023/03/15 02:30:43;;;;;;;13.10;0.60;;;1.80;1.00;;;;;;4977194;28;20366;-62
2023/03/15 02:33:40;;;;;;;6.70;0.40;;;2.00;1.00;;;;;;4977071;28;20096;-61
2023/03/15 02:36:20;;;;;;;12.05;0.63;;;1.60;1.00;;;;;;4978610;28;20108;-62
2023/03/15 02:38:47;;;;;;;9.23;0.60;;;1.70;1.00;;;;;;4992686;28;20046;-61
2023/03/15 02:41:17;;;;;;;13.88;1.02;;;1.60;1.00;;;;;;4977934;28;20038;-61
2023/03/15 02:43:46;;;;;;;14.38;0.80;;;1.50;1.00;;;;;;4977080;28;20078;-62
2023/03/15 02:46:12;;;;;;;16.98;0.90;;;1.70;1.00;;;;;;4994534;28;20076;-64
2023/03/15 02:48:41;;;;;;;15.13;1.10;;;1.70;1.00;;;;;;4971836;28;20045;-62
2023/03/15 02:51:06;;;;;;;12.45;0.80;;;1.60;99.90;;;;;;4991942;28;20124;-62
2023/03/15 02:53:32;;;;;;;11.23;0.80;;;1.70;99.90;;;;;;4959614;28;20038;-62
2023/03/15 02:55:58;;;;;;;15.43;1.13;;;1.70;99.90;;;;;;4979709;28;20113;-62
2023/03/15 02:58:24;;;;;;;12.00;0.90;;;1.60;99.90;;;;;;4975240;28;20041;-62
2023/03/15 03:00:52;;;;;;;11.93;0.85;;;1.70;99.90;;;;;;4974863;28;21339;-64
2023/03/15 03:03:18;;;;;;;14.10;0.88;;;1.70;99.90;;;;;;4975845;28;20365;-64
2023/03/15 03:05:44;;;;;;;12.38;1.02;;;1.50;99.90;;;;;;4992848;28;20049;-64
2023/03/15 03:08:10;;;;;;;11.75;0.70;;;1.60;99.90;;;;;;4974501;28;20042;-64
2023/03/15 03:10:35;;;;;;;13.82;0.98;;;1.40;99.90;;;;;;4975063;28;20052;-63
2023/03/15 03:13:01;;;;;;;10.38;1.00;;;1.30;99.90;;;;;;5007800;28;20132;-63
2023/03/15 03:15:27;;;;;;;13.35;1.10;;;1.20;99.90;;;;;;4979949;28;20362;-62
2023/03/15 03:17:53;;;;;;;11.93;1.13;;;1.10;99.90;;;;;;4976301;28;20057;-61
2023/03/15 03:20:19;;;;;;;14.98;0.93;;;1.00;99.90;;;;;;4976031;28;20042;-61
2023/03/15 03:22:44;;;;;;;12.60;0.90;;;1.00;99.90;;;;;;4977610;28;20096;-61
2023/03/15 03:25:11;;;;;;;16.25;1.10;;;1.00;99.90;;;;;;5007352;28;20289;-62
2023/03/15 03:27:38;;;;;;;20.40;1.33;;;0.90;99.90;;;;;;4973749;28;20536;-62
2023/03/15 03:30:06;;;;;;;13.80;0.82;;;1.10;99.90;;;;;;4992342;28;20046;-63
2023/03/15 03:32:32;;;;;;;17.25;1.42;;;1.10;99.90;;;;;;4977236;28;20038;-64
2023/03/15 03:34:58;;;;;;;16.27;1.30;;;1.10;99.90;;;;;;4977327;28;20042;-61
2023/03/15 03:37:24;;;;;;;14.35;0.80;;;1.00;99.90;;;;;;4977018;28;20241;-62
2023/03/15 03:39:50;;;;;;;15.55;1.00;;;1.00;99.90;;;;;;4974939;28;20421;-62
2023/03/15 03:42:15;;;;;;;10.07;0.82;;;0.90;99.90;;;;;;4992433;28;20042;-62
2023/03/15 03:44:41;;;;;;;13.27;0.77;;;1.10;1.00;;;;;;4974024;28;20056;-62
2023/03/15 03:47:08;;;;;;;12.48;1.13;;;1.60;99.90;;;;;;4991414;28;20049;-62
2023/03/15 03:49:33;;;;;;;10.85;0.80;;;2.10;99.90;;;;;;4975823;28;20237;-62
2023/03/15 03:52:00;;;;;;;15.77;0.95;;;2.20;99.90;;;;;;4990423;28;20569;-62
2023/03/15 03:54:27;;;;;;;11.68;0.70;;;2.40;99.90;;;;;;4991467;28;20435;-64
2023/03/15 03:56:53;;;;;;;14.20;1.20;;;2.30;99.90;;;;;;4992483;28;20444;-65
2023/03/15 03:59:19;;;;;;;8.95;0.93;;;2.40;99.90;;;;;;5005126;28;20053;-64
2023/03/15 04:01:44;;;;;;;10.93;1.15;;;2.30;99.90;;;;;;5006178;28;20245;-62
2023/03/15 04:04:13;;;;;;;9.00;0.60;;;2.20;99.90;;;;;;4958660;28;20136;-64
2023/03/15 04:06:44;;;;;;;5.38;0.60;;;2.30;99.90;;;;;;4978843;28;20319;-63
2023/03/15 04:09:14;;;;;;;11.55;0.88;;;2.10;99.90;;;;;;4975867;28;20457;-63
2023/03/15 04:11:41;;;;;;;7.63;0.63;;;2.00;99.90;;;;;;4977213;28;20081;-63
2023/03/15 04:14:09;;;;;;;15.00;0.70;;;2.10;99.90;;;;;;4976462;28;20558;-63
2023/03/15 04:16:34;;;;;;;6.00;0.55;;;2.10;99.90;;;;;;4977729;28;20709;-64
2023/03/15 04:19:00;;;;;;;10.27;0.77;;;1.90;99.90;;;;;;4976206;28;20042;-62
2023/03/15 04:21:30;;;;;;;13.60;0.63;;;2.00;99.90;;;;;;4972918;28;20049;-62
2023/03/15 04:23:59;;;;;;;7.15;0.50;;;1.90;99.90;;;;;;4991625;28;20065;-62
2023/03/15 04:26:25;;;;;;;9.70;0.70;;;1.90;99.90;;;;;;4976124;28;20500;-63
2023/03/15 04:28:56;;;;;;;8.48;0.80;;;2.00;99.90;;;;;;4992129;28;20034;-62
2023/03/15 04:31:25;;;;;;;9.77;0.68;;;2.00;99.90;;;;;;4977501;28;20041;-62
2023/03/15 04:33:55;;;;;;;6.22;0.40;;;2.00;99.90;;;;;;4976515;28;20038;-62
2023/03/15 04:36:22;;;;;;;7.55;0.52;;;2.00;99.90;;;;;;4974770;28;20088;-63
2023/03/15 04:38:49;;;;;;;7.03;0.50;;;2.00;99.90;;;;;;4972296;28;20047;-63
2023/03/15 04:41:16;;;;;;;5.32;0.22;;;2.00;99.90;;;;;;4975123;28;20042;-63
2023/03/15 04:43:43;;;;;;;6.15;0.40;;;2.00;99.90;;;;;;4989483;28;20520;-63
2023/03/15 04:46:09;;;;;;;5.70;0.20;;;1.80;99.90;;;;;;4992380;28;20125;-63
2023/03/15 04:48:35;;;;;;;4.30;0.30;;;1.70;99.90;;;;;;4985997;28;20309;-63
2023/03/15 04:51:01;;;;;;;5.07;0.30;;;1.60;99.90;;;;;;5004779;28;20047;-63
2023/03/15 04:53:27;;;;;;;6.47;0.32;;;1.60;99.90;;;;;;4973771;28;20441;-64
2023/03/15 04:55:53;;;;;;;9.88;0.57;;;1.50;99.90;;;;;;4974148;28;20074;-64
2023/03/15 04:58:19;;;;;;;7.85;0.35;;;1.50;99.90;;;;;;4995295;28;20174;-62
2023/03/15 05:00:45;;;;;;;4.63;0.40;;;1.40;99.90;;;;;;4990847;28;20081;-62
2023/03/15 05:03:11;;;;;;;2.85;0.20;;;1.50;99.90;;;;;;4977926;28;20161;-62
2023/03/15 05:05:36;;;;;;;6.45;0.30;;;1.40;99.90;;;;;;4996330;28;20108;-62
2023/03/15 05:08:02;;;;;;;4.28;0.20;;;1.40;99.90;;;;;;4994253;28;20432;-61
2023/03/15 05:10:32;;;;;;;3.75;0.30;;;1.30;99.90;;;;;;5008797;28;20393;-62
2023/03/15 05:12:57;;;;;;;3.33;0.30;;;1.30;99.90;;;;;;4996217;28;20678;-63
2023/03/15 05:15:23;;;;;;;5.47;0.20;;;1.20;99.90;;;;;;4993561;28;20639;-64
2023/03/15 05:17:49;;;;;;;1.92;0.20;;;1.10;99.90;;;;;;4977608;28;20042;-64
2023/03/15 05:20:15;;;;;;;3.78;0.30;;;1.10;99.90;;;;;;4975591;28;20065;-63
2023/03/15 05:22:41;;;;;;;1.90;0.20;;;1.10;99.90;;;;;;4960277;28;20195;-63
2023/03/15 05:25:09;;;;;;;7.90;0.30;;;0.90;99.90;;;;;;4993417;28;20172;-63
2023/03/15 05:27:35;;;;;;;6.70;0.40;;;0.90;99.90;;;;;;4995749;28;20550;-63
2023/03/15 05:30:02;;;;;;;6.25;0.35;;;0.90;99.90;;;;;;4977972;28;20041;-63
2023/03/15 05:32:33;;;;;;;3.65;0.30;;;0.80;99.90;;;;;;4977587;28;20041;-62
2023/03/15 05:35:03;;;;;;;7.90;0.40;;;0.70;99.90;;;;;;4976615;28;20061;-62
2023/03/15 05:37:31;;;;;;;4.13;0.30;;;0.60;99.90;;;;;;4996946;28;20053;-62
2023/03/15 05:39:58;;;;;;;4.93;0.30;;;0.70;99.90;;;;;;5009248;28;20066;-62
2023/03/15 05:42:28;;;;;;;3.20;0.30;;;0.60;99.90;;;;;;4976734;28;20069;-63
2023/03/15 05:44:55;;;;;;;4.10;0.40;;;0.50;99.90;;;;;;5007450;28;20459;-63
2023/03/15 05:47:21;;;;;;;5.68;0.38;;;0.30;99.90;;;;;;5005721;28;20049;-64
2023/03/15 05:49:47;;;;;;;6.53;0.50;;;0.20;99.90;;;;;;4993198;28;20396;-64
2023/03/15 05:52:14;;;;;;;4.70;0.45;;;0.20;99.90;;;;;;5008757;28;20938;-65
2023/03/15 05:54:40;;;;;;;6.22;0.40;;;0.20;99.90;;;;;;4992779;28;20046;-65
2023/03/15 05:57:06;;;;;;;6.63;0.28;;;0.20;99.90;;;;;;4988526;28;20507;-65
2023/03/15 05:59:32;;;;;;;7.68;0.50;;;0.20;99.90;;;;;;4974646;28;20479;-62
2023/03/15 06:01:58;;;;;;;10.32;0.50;;;0.30;99.90;;;;;;4992173;28;20050;-63
2023/03/15 06:04:24;;;;;;;5.45;0.50;;;0.40;99.90;;;;;;4961346;28;20378;-64
2023/03/15 06:06:50;;;;;;;11.75;0.75;;;0.40;99.90;;;;;;4992390;28;20076;-63
2023/03/15 06:09:16;;;;;;;10.93;0.60;;;0.60;99.90;;;;;;5007462;28;20034;-63
2023/03/15 06:11:42;;;;;;;6.40;0.65;;;0.80;99.90;;;;;;4991335;28;20544;-64
2023/03/15 06:14:07;;;;;;;8.68;0.77;;;0.90;99.90;;;;;;4995559;28;20112;-62
2023/03/15 06:16:33;;;;;;;7.50;0.50;;;1.00;99.90;;;;;;4975025;28;20643;-63
2023/03/15 06:18:59;;;;;;;8.52;0.60;;;1.10;99.90;;;;;;4975703;28;20041;-63
2023/03/15 06:21:25;;;;;;;10.30;0.80;;;1.20;99.90;;;;;;5007907;28;20060;-64
2023/03/15 06:23:50;;;;;;;11.07;0.47;;;1.00;99.90;;;;;;5007551;28;20530;-65
2023/03/15 06:26:18;;;;;;;7.40;0.50;;;1.10;99.90;;;;;;4975232;28;20046;-64
2023/03/15 06:28:44;;;;;;;6.32;0.55;;;1.00;99.90;;;;;;4979180;28;20072;-63
2023/03/15 06:31:11;;;;;;;4.68;0.60;;;0.90;99.90;;;;;;4992017;28;20042;-64
2023/03/15 06:33:38;;;;;;;9.23;0.60;;;0.90;99.90;;;;;;4990676;28;20539;-63
2023/03/15 06:36:04;;;;;;;5.72;0.50;;;0.70;99.90;;;;;;4975914;28;20050;-64
2023/03/15 06:38:30;;;;;;;8.93;0.60;;;0.70;99.90;;;;;;4993358;28;20578;-64
2023/03/15 06:40:59;;;;;;;7.97;0.60;;;0.80;99.90;;;;;;5007421;28;20062;-64
2023/03/15 06:43:25;;;;;;;10.82;0.70;;;0.90;1.00;;;;;;4992088;28;20042;-65
2023/03/15 06:45:52;;;;;;;6.20;0.47;;;1.30;1.00;;;;;;4976180;28;20077;-64
2023/03/15 06:48:18;;;;;;;7.63;0.50;;;1.60;1.00;;;;;;4973542;28;20289;-64
2023/03/15 06:50:44;;;;;;;8.43;0.73;;;1.90;99.90;;;;;;4997300;28;20318;-63
2023/03/15 06:53:09;;;;;;;6.47;0.52;;;1.80;1.00;;;;;;4975896;28;20122;-65
2023/03/15 06:55:35;;;;;;;9.20;0.80;;;1.80;1.00;;;;;;4977461;28;20045;-63
2023/03/15 06:58:01;;;;;;;8.30;0.68;;;1.90;1.00;;;;;;4991749;28;20341;-62
2023/03/15 07:00:27;;;;;;;8.32;0.43;;;2.10;1.00;;;;;;4990821;28;20147;-63
2023/03/15 07:02:52;;;;;;;6.20;0.63;;;2.20;99.90;;;;;;4961141;28;20070;-62
2023/03/15 07:05:18;;;;;;;7.20;0.63;;;1.90;99.90;;;;;;4978050;28;20045;-62
2023/03/15 07:07:44;;;;;;;8.60;0.68;;;1.70;99.90;;;;;;4992480;28;20467;-63
2023/03/15 07:10:10;;;;;;;8.10;0.60;;;1.60;99.90;;;;;;4976729;28;20038;-63
2023/03/15 07:12:36;;;;;;;11.60;1.00;;;1.60;99.90;;;;;;4977105;28;20526;-63
2023/03/15 07:15:01;;;;;;;10.88;1.10;;;1.50;1.00;;;;;;4976808;28;20457;-62
2023/03/15 07:17:27;;;;;;;11.73;0.80;;;1.40;1.00;;;;;;4978682;28;20524;-62
2023/03/15 07:19:53;;;;;;;8.60;1.08;;;1.50;1.00;;;;;;5006877;28;20129;-63
2023/03/15 07:22:21;;;;;;;10.65;1.15;;;1.80;1.00;;;;;;4975232;28;20054;-63
2023/03/15 07:24:47;;;;;;;10.10;1.00;;;2.20;74.00;;;;;;5007207;28;20046;-63
2023/03/15 07:27:13;;;;;;;11.35;1.10;;;2.80;1.00;;;;;;4974696;28;20408;-64
2023/03/15 07:29:40;;;;;;;7.95;0.77;;;3.40;1.00;;;;;;4972881;28;20041;-64
2023/03/15 07:32:06;;;;;;;8.25;0.70;;;3.80;99.90;;;;;;4990308;28;20406;-64
2023/03/15 07:34:31;;;;;;;11.23;0.52;;;4.00;99.90;;;;;;4994168;28;20060;-64
2023/03/15 07:36:57;;;;;;;9.30;0.95;;;4.20;99.90;;;;;;4991809;28;20485;-62
2023/03/15 07:39:25;;;;;;;5.90;0.77;;;4.30;99.90;;;;;;4975593;28;20524;-62
2023/03/15 07:41:51;;;;;;;10.75;1.00;;;4.50;1.00;;;;;;4997524;28;20045;-62
2023/03/15 07:44:18;;;;;;;8.88;0.90;;;4.60;1.00;;;;;;4979422;28;20194;-64
2023/03/15 07:46:44;;;;;;;7.43;0.50;;;4.90;1.00;;;;;;4974425;28;20121;-63
2023/03/15 07:49:10;;;;;;;14.02;0.90;;;5.10;1.00;;;;;;4991032;28;20045;-64
2023/03/15 07:51:35;;;;;;;5.70;0.77;;;5.10;99.90;;;;;;5005531;28;20042;-63
2023/03/15 07:54:01;;;;;;;6.38;0.70;;;5.10;1.00;;;;;;4974768;28;20050;-63
2023/03/15 07:56:27;;;;;;;8.27;0.95;;;5.10;1.00;;;;;;4989860;28;20061;-63
2023/03/15 07:58:52;;;;;;;11.38;0.82;;;5.20;99.90;;;;;;4995993;28;20080;-63
2023/03/15 08:01:18;;;;;;;8.07;0.95;;;5.20;1.00;;;;;;4975637;28;20522;-65
2023/03/15 08:03:44;;;;;;;8.40;0.60;;;5.30;1.00;;;;;;4975541;28;20041;-63
2023/03/15 08:06:09;;;;;;;9.93;0.70;;;5.30;1.00;;;;;;4974043;28;20508;-64
2023/03/15 08:08:35;;;;;;;8.50;0.55;;;5.50;1.00;;;;;;4972980;28;20041;-65
2023/03/15 08:11:01;;;;;;;7.38;0.65;;;5.60;1.00;;;;;;4974234;28;20432;-64
2023/03/15 08:13:27;;;;;;;9.55;0.80;;;5.50;1.00;;;;;;4971569;28;20054;-65
2023/03/15 08:15:53;;;;;;;11.13;1.20;;;5.70;1.00;;;;;;4989303;28;20056;-63
2023/03/15 08:18:18;;;;;;;9.07;0.90;;;5.60;99.90;;;;;;4991005;28;20048;-64
2023/03/15 08:20:44;;;;;;;7.75;0.75;;;5.90;1.00;;;;;;4958015;28;20156;-63
2023/03/15 08:23:15;;;;;;;9.25;0.75;;;5.80;1.00;;;;;;4961090;28;20352;-63
2023/03/15 08:25:41;;;;;;;9.70;0.80;;;6.00;1.00;;;;;;4973673;28;20057;-63
2023/03/15 08:28:07;;;;;;;7.43;0.73;;;6.30;1.00;;;;;;4977430;28;20042;-64
2023/03/15 08:30:32;;;;;;;10.43;0.77;;;6.30;99.90;;;;;;4972894;28;20698;-64
2023/03/15 08:32:58;;;;;;;7.30;0.70;;;6.40;1.00;;;;;;4976778;28;20062;-64
2023/03/15 08:35:27;;;;;;;10.80;0.98;;;6.50;1.00;;;;;;4977708;28;20057;-65
2023/03/15 08:38:20;;;;;;;6.93;0.70;;;6.50;1.00;;;;;;4995437;28;20044;-64
2023/03/15 08:41:10;;;;;;;8.20;0.85;;;6.60;99.90;;;;;;4964473;28;20620;-64
2023/03/15 08:43:36;;;;;;;11.73;1.05;;;6.60;99.90;;;;;;4991634;28;20049;-64
2023/03/15 08:46:01;;;;;;;11.30;0.88;;;6.80;1.00;;;;;;5002544;28;20308;-65
2023/03/15 08:48:27;;;;;;;8.57;0.77;;;6.90;1.00;;;;;;4998590;28;20509;-64
2023/03/15 08:50:53;;;;;;;13.07;1.27;;;6.90;99.90;;;;;;5031053;28;20053;-63
2023/03/15 08:53:19;;;;;;;11.40;0.88;;;7.10;99.90;;;;;;4997524;28;20330;-63
2023/03/15 08:55:44;;;;;;;7.45;0.57;;;6.90;99.90;;;;;;5013585;28;20380;-63
2023/03/15 08:58:13;;;;;;;6.53;0.60;;;6.90;99.90;;;;;;4998785;28;20404;-64
2023/03/15 09:00:39;;;;;;;8.82;0.80;;;7.00;99.90;;;;;;4997066;28;20527;-63
2023/03/15 09:03:05;;;;;;;10.60;0.85;;;7.20;99.90;;;;;;5000659;28;20270;-63
2023/03/15 09:05:30;;;;;;;11.48;1.00;;;7.30;99.90;;;;;;4985859;28;20495;-63
2023/03/15 09:07:57;;;;;;;7.70;1.25;;;7.50;99.90;;;;;;5035350;28;20075;-62
2023/03/15 09:10:23;;;;;;;11.88;1.15;;;7.70;99.90;;;;;;5020696;28;20044;-62
2023/03/15 09:12:52;;;;;;;8.45;0.98;;;8.00;99.90;;;;;;5001668;28;20050;-63
2023/03/15 09:15:18;;;;;;;9.73;0.70;;;7.90;99.90;;;;;;5022031;28;20317;-62
2023/03/15 09:17:44;;;;;;;7.50;0.60;;;8.20;99.90;;;;;;5019468;28;20214;-63
2023/03/15 09:20:15;;;;;;;6.28;0.80;;;8.10;99.90;;;;;;5017412;28;20120;-63
2023/03/15 09:22:52;;;;;;;11.20;0.70;;;8.30;99.90;;;;;;5024073;28;20057;-63
2023/03/15 09:25:19;;;;;;;7.47;0.77;;;8.50;99.90;;;;;;4999618;28;20052;-62
2023/03/15 09:27:45;;;;;;;9.05;0.80;;;8.40;99.90;;;;;;5019817;28;20088;-63
2023/03/15 09:30:12;;;;;;;8.27;0.60;;;8.50;99.90;;;;;;5019046;28;20603;-62
2023/03/15 09:32:37;;;;;;;8.43;0.63;;;8.50;99.90;;;;;;5032808;28;20059;-64
2023/03/15 09:35:05;;;;;;;6.28;0.57;;;8.40;99.90;;;;;;5016555;28;20041;-63
2023/03/15 09:37:31;;;;;;;6.90;0.63;;;8.40;99.90;;;;;;5017441;28;20168;-63
2023/03/15 09:39:57;;;;;;;8.65;0.68;;;8.50;99.90;;;;;;5016092;28;20053;-63
2023/03/15 09:42:29;;;;;;;8.25;0.65;;;8.60;99.90;;;;;;5016679;28;20674;-63
2023/03/15 09:45:26;;;;;;;5.40;0.60;;;8.70;84.20;;;;;;4986733;28;20165;-61
2023/03/15 09:48:14;;;;;;;6.70;0.70;;;8.60;1.00;;;;;;4978729;28;20149;-62
2023/03/15 09:50:48;;;;;;;7.25;0.70;;;8.70;98.60;;;;;;4978570;28;20465;-62
2023/03/15 09:53:55;;;;;;;8.02;1.10;;;9.10;60.30;;;;;;4980468;28;20038;-63
2023/03/15 09:56:35;;;;;;;7.72;0.82;;;8.90;99.90;;;;;;4961807;28;20259;-61
2023/03/15 09:59:01;;;;;;;7.63;0.60;;;8.80;1.00;;;;;;5011266;28;20220;-64
2023/03/15 10:01:39;;;;;;;8.30;0.85;;;9.10;1.00;;;;;;4994826;28;20073;-62
2023/03/15 10:04:41;;;;;;;9.75;0.60;;;9.20;1.00;;;;;;4978305;28;20053;-63
2023/03/15 10:07:12;;;;;;;6.22;0.40;;;9.20;99.90;;;;;;4979617;28;20257;-62
2023/03/15 10:09:38;;;;;;;10.77;0.70;;;9.20;99.90;;;;;;4979573;28;20145;-62
2023/03/15 10:12:10;;;;;;;7.55;0.70;;;9.20;99.90;;;;;;4980525;28;20498;-63
2023/03/15 10:14:56;;;;;;;6.57;0.50;;;9.50;99.90;;;;;;4983357;28;20324;-63
2023/03/15 10:17:40;;;;;;;7.18;0.88;;;9.60;99.90;;;;;;4981365;28;20285;-63
2023/03/15 10:20:10;;;;;;;;;;;9.30;99.90;;;;;;4996778;28;20497;-62
2023/03/15 10:22:45;;;;;;;6.95;0.50;;;9.00;99.90;;;;;;4980006;28;19929;-63
2023/03/15 10:25:19;;;;;;;11.38;0.80;;;8.60;99.90;;;;;;5008497;28;20497;-62
2023/03/15 10:27:53;;;;;;;6.95;0.70;;;8.70;1.00;;;;;;4996466;28;20554;-62
2023/03/15 10:30:28;;;;;;;7.68;0.70;;;8.90;99.90;;;;;;4981651;28;20042;-63
2023/03/15 10:33:18;;;;;;;8.98;0.55;;;9.20;99.90;;;;;;4981781;28;20034;-64
2023/03/15 10:35:44;;;;;;;4.60;0.68;;;9.40;99.90;;;;;;4993512;28;20100;-62
2023/03/15 10:38:21;;;;;;;10.27;0.90;;;9.60;99.90;;;;;;4979199;28;20046;-63
2023/03/15 10:40:57;;;;;;;8.18;0.50;;;10.00;99.90;;;;;;4979409;28;20078;-63
2023/03/15 10:43:29;;;;;;;7.60;0.80;;;10.40;99.90;;;;;;4978495;28;20093;-64
2023/03/15 10:46:00;;;;;;;11.63;0.70;;;10.40;99.90;;;;;;4964537;28;20042;-64
2023/03/15 10:48:28;;;;;;;6.07;0.73;;;9.60;99.90;;;;;;4995644;28;20038;-63
2023/03/15 10:50:55;;;;;;;9.48;0.57;;;8.50;99.90;;;;;;4978317;28;20100;-63
2023/03/15 10:53:24;;;;;;;9.57;0.75;;;8.30;99.90;;;;;;4979143;28;20449;-63
2023/03/15 10:56:08;;;;;;;5.70;0.47;;;8.60;99.90;;;;;;4993239;28;20052;-63
2023/03/15 10:58:46;;;;;;;6.72;0.50;;;9.30;99.90;;;;;;4982265;28;20059;-63
2023/03/15 11:01:25;;;;;;;7.90;0.88;;;9.80;99.90;;;;;;4996712;28;20096;-62
2023/03/15 11:04:22;;;;;;;7.15;0.70;;;10.00;99.90;;;;;;4978552;28;20402;-62
2023/03/15 11:06:52;;;;;;;10.13;0.70;;;10.20;99.90;;;;;;4979217;28;20034;-63
2023/03/15 11:09:24;;;;;;;5.28;0.52;;;10.50;99.90;;;;;;4978602;28;20046;-63
2023/03/15 11:12:05;;;;;;;7.85;0.77;;;9.70;99.90;;;;;;4981192;28;20843;-64
2023/03/15 11:14:36;;;;;;;7.07;0.47;;;9.50;99.90;;;;;;4979831;28;20046;-62
2023/03/15 11:17:05;;;;;;;7.78;0.82;;;9.90;99.90;;;;;;4979597;28;20077;-62
2023/03/15 11:19:35;;;;;;;6.13;0.60;;;10.50;99.90;;;;;;4977945;28;20129;-63
2023/03/15 11:22:01;;;;;;;6.82;0.68;;;10.70;99.90;;;;;;4982030;28;20057;-63
2023/03/15 11:24:29;;;;;;;8.48;0.80;;;10.50;99.90;;;;;;4979409;28;20046;-63
2023/03/15 11:27:01;;;;;;;4.97;0.63;;;10.40;99.90;;;;;;4981796;28;20399;-64
2023/03/15 11:29:36;;;;;;;4.95;0.40;;;10.60;99.90;;;;;;5011418;28;20117;-63
2023/03/15 11:32:12;;;;;;;11.02;1.00;;;10.80;99.90;;;;;;5013340;28;20587;-63
2023/03/15 11:34:56;;;;;;;5.43;0.68;;;10.90;99.90;;;;;;4995202;28;20601;-66
2023/03/15 11:37:46;;;;;;;6.65;0.50;;;11.40;99.90;;;;;;4960671;28;20499;-63
2023/03/15 11:40:22;;;;;;;6.32;0.60;;;11.00;99.90;;;;;;4977646;28;20116;-62
2023/03/15 11:42:56;;;;;;;7.15;0.52;;;10.40;99.90;;;;;;4996462;28;20046;-62
2023/03/15 11:45:37;;;;;;;8.27;0.60;;;9.90;99.90;;;;;;4994001;28;20691;-62
2023/03/15 11:48:13;;;;;;;5.82;0.50;;;9.40;99.90;;;;;;4995378;28;20057;-63
2023/03/15 11:50:39;;;;;;;8.20;0.65;;;9.00;99.90;;;;;;4980774;28;20053;-64
2023/03/15 11:53:06;;;;;;;5.10;0.50;;;9.80;99.90;;;;;;4994909;28;20038;-62
2023/03/15 11:55:32;;;;;;;4.60;0.40;;;10.10;99.90;;;;;;5010473;28;20046;-63
2023/03/15 11:58:30;;;;;;;5.22;0.50;;;10.50;99.90;;;;;;4992718;28;20479;-62
2023/03/15 12:01:03;;;;;;;4.70;0.47;;;10.90;99.90;;;;;;4992895;28;20671;-64
2023/03/15 12:03:44;;;;;;;6.85;0.50;;;11.00;99.90;;;;;;4976611;28;20361;-64
2023/03/15 12:06:15;;;;;;;9.57;0.60;;;11.30;99.90;;;;;;4994898;28;20038;-63
2023/03/15 12:08:51;;;;;;;6.70;0.80;;;11.50;99.90;;;;;;4979953;28;20038;-64
2023/03/15 12:11:20;;;;;;;7.35;0.50;;;11.50;99.90;;;;;;4980618;28;20221;-62
2023/03/15 12:13:58;;;;;;;5.00;0.70;;;11.90;99.90;;;;;;4998762;28;20475;-64
2023/03/15 12:16:37;;;;;;;6.10;0.50;;;12.10;99.90;;;;;;4997011;28;20049;-64
2023/03/15 12:19:13;;;;;;;6.55;0.50;;;11.30;99.90;;;;;;5010550;28;20365;-64
2023/03/15 12:21:56;;;;;;;6.57;0.70;;;10.90;99.90;;;;;;4993410;28;20034;-63
2023/03/15 12:24:27;;;;;;;7.38;0.60;;;10.50;99.90;;;;;;4967660;28;20047;-63
2023/03/15 12:27:03;;;;;;;5.82;0.57;;;10.70;99.90;;;;;;4967849;28;20064;-63
2023/03/15 12:29:33;;;;;;;6.60;0.70;;;11.20;99.90;;;;;;4979764;28;20046;-63
2023/03/15 12:32:02;;;;;;;3.58;0.50;;;11.50;99.90;;;;;;4992521;28;20543;-63
2023/03/15 12:34:53;;;;;;;5.75;0.50;;;11.30;99.90;;;;;;4980322;28;20046;-63
2023/03/15 12:37:43;;;;;;;5.53;0.52;;;11.20;99.90;;;;;;4982873;28;20230;-63
2023/03/15 12:40:15;;;;;;;6.13;0.40;;;11.40;99.90;;;;;;4978538;28;20425;-63
2023/03/15 12:42:41;;;;;;;7.07;0.70;;;11.00;99.90;;;;;;4994891;28;20104;-63
2023/03/15 12:45:16;;;;;;;6.50;0.50;;;10.70;99.90;;;;;;4980964;28;20552;-63
2023/03/15 12:47:51;;;;;;;5.13;0.60;;;10.40;99.90;;;;;;4980363;28;20216;-63
2023/03/15 12:50:44;;;;;;;4.45;0.40;;;10.80;99.90;;;;;;4973856;28;20594;-66
2023/03/15 12:53:28;;;;;;;6.57;0.50;;;11.20;99.90;;;;;;4992468;28;20049;-65
2023/03/15 12:55:56;;;;;;;5.88;0.60;;;11.20;99.90;;;;;;4977528;28;20057;-66
2023/03/15 12:58:30;;;;;;;3.38;0.35;;;11.70;99.90;;;;;;4975652;28;20046;-65
2023/03/15 13:00:57;;;;;;;3.97;0.45;;;12.20;99.90;;;;;;4994245;28;20569;-63
2023/03/15 13:03:25;;;;;;;4.97;0.60;;;12.20;99.90;;;;;;5008451;28;20802;-65
2023/03/15 13:06:20;;;;;;;4.75;0.50;;;12.00;99.90;;;;;;4976160;28;20044;-64